createdAt,value
2023-01-20T00:03:52.240Z,99907.61
2023-01-20T00:09:00.485Z,99916.50
2023-01-20T00:14:06.979Z,99926.10
2023-01-20T00:19:14.583Z,99932.76
2023-01-20T00:24:21.023Z,99938.04
2023-01-20T00:29:27.204Z,99947.45
2023-01-20T00:34:33.663Z,99957.21
2023-01-20T00:39:40.004Z,99967.30
2023-01-20T00:44:46.492Z,99971.20
2023-01-20T00:49:52.993Z,99977.02
2023-01-20T00:54:59.280Z,99984.04
2023-01-20T01:00:06.835Z,99993.77
2023-01-20T01:05:13.179Z,100001.30
2023-01-20T01:10:19.962Z,100004.23
2023-01-20T01:15:25.917Z,100006.77
2023-01-20T01:20:31.788Z,100003.87
2023-01-20T01:25:39.161Z,99998.72
2023-01-20T01:30:45.071Z,100006.61
2023-01-20T01:35:58.225Z,100016.36
2023-01-20T01:41:04.771Z,100020.61
2023-01-20T01:46:11.061Z,100024.55
2023-01-20T01:51:20.152Z,100028.67
2023-01-20T01:56:29.284Z,100027.29
2023-01-20T02:01:39.812Z,100025.21
2023-01-20T02:06:49.831Z,100017.69
2023-01-20T02:12:00.621Z,100020.95
2023-01-20T02:17:17.530Z,100025.73
2023-01-20T02:22:33.189Z,100030.00
2023-01-20T02:28:06.608Z,100039.30
2023-01-20T02:33:16.623Z,100042.06
2023-01-20T02:38:31.026Z,100042.61
2023-01-20T02:43:45.610Z,100049.14
2023-01-20T02:48:57.207Z,100049.15
2023-01-20T02:54:08.698Z,100044.39
2023-01-20T02:59:18.384Z,100038.92
2023-01-20T03:04:29.991Z,100037.21
2023-01-20T03:09:42.168Z,100035.17
2023-01-20T03:14:48.137Z,100035.34
2023-01-20T03:19:54.395Z,100044.75
2023-01-20T03:25:01.503Z,100047.99
2023-01-20T03:30:15.111Z,100046.10
2023-01-20T03:35:22.706Z,100051.05
2023-01-20T03:40:33.824Z,100054.96
2023-01-20T03:45:50.021Z,100056.67
2023-01-20T03:51:01.799Z,100066.29
2023-01-20T03:56:13.244Z,100076.24
2023-01-20T04:01:23.760Z,100086.69
2023-01-20T04:06:31.580Z,100095.92
2023-01-20T04:11:37.960Z,100120.27
2023-01-20T04:16:49.895Z,100134.83
2023-01-20T04:22:01.723Z,100135.17
2023-01-20T04:27:07.778Z,100139.61
2023-01-20T04:32:13.999Z,100152.32
2023-01-20T04:37:20.124Z,100161.59
2023-01-20T04:42:26.391Z,100163.48
2023-01-20T04:47:33.851Z,100166.06
2023-01-20T04:52:40.267Z,100173.48
2023-01-20T04:57:47.593Z,100186.20
2023-01-20T05:02:53.733Z,100186.02
2023-01-20T05:08:00.205Z,100190.78
2023-01-20T05:13:06.327Z,100192.79
2023-01-20T05:18:12.524Z,100198.09
2023-01-20T05:23:19.166Z,100204.42
2023-01-20T05:28:25.283Z,100207.80
2023-01-20T05:33:30.964Z,100220.29
2023-01-20T05:38:37.565Z,100229.04
2023-01-20T05:43:43.575Z,100238.44
2023-01-20T05:48:49.340Z,100246.66
2023-01-20T05:53:55.531Z,100256.10
2023-01-20T05:59:01.891Z,100263.02
2023-01-20T06:04:08.850Z,100277.61
2023-01-20T06:09:15.061Z,100297.79
2023-01-20T06:14:21.556Z,100324.48
2023-01-20T06:19:27.872Z,100344.88
2023-01-20T06:24:35.554Z,100351.39
2023-01-20T06:29:44.289Z,100366.46
2023-01-20T06:34:52.962Z,100376.77
2023-01-20T06:39:59.138Z,100383.89
2023-01-20T06:45:06.396Z,100385.12
2023-01-20T06:50:17.896Z,100395.08
2023-01-20T06:55:24.074Z,100401.23
2023-01-20T07:00:33.702Z,100403.86
2023-01-20T07:05:42.136Z,100405.31
2023-01-20T07:10:48.428Z,100408.08
2023-01-20T07:15:55.849Z,100406.20
2023-01-20T07:21:03.071Z,100411.70
2023-01-20T07:26:12.001Z,100420.27
2023-01-20T07:31:20.753Z,100428.55
2023-01-20T07:36:29.060Z,100438.98
2023-01-20T07:41:36.544Z,100439.23
2023-01-20T07:46:44.666Z,100439.62
2023-01-20T07:51:52.071Z,100438.95
2023-01-20T07:56:58.902Z,100439.48
2023-01-20T08:02:05.892Z,100441.55
2023-01-20T08:07:13.117Z,100442.51
2023-01-20T08:12:20.050Z,100438.27
2023-01-20T08:17:26.485Z,100437.61
2023-01-20T08:22:34.347Z,100438.11
2023-01-20T08:27:40.777Z,100440.77
2023-01-20T08:32:47.538Z,100448.98
2023-01-20T08:37:54.158Z,100448.42
2023-01-20T08:43:00.983Z,100441.11
2023-01-20T08:48:08.976Z,100436.61
2023-01-20T08:53:15.373Z,100440.98
2023-01-20T08:58:23.021Z,100452.04
2023-01-20T09:03:33.105Z,100459.09
2023-01-20T09:08:40.731Z,100461.55
2023-01-20T09:13:49.048Z,100456.66
2023-01-20T09:18:56.106Z,100456.69
2023-01-20T09:24:02.269Z,100467.13
2023-01-20T09:29:10.807Z,100476.53
2023-01-20T09:34:21.509Z,100487.99
2023-01-20T09:39:46.745Z,100495.49
2023-01-20T09:45:03.653Z,100500.09
2023-01-20T09:50:47.489Z,100504.34
2023-01-20T09:55:56.771Z,100505.92
2023-01-20T10:01:10.957Z,100518.29
2023-01-20T10:06:24.869Z,100523.27
2023-01-20T10:11:37.328Z,100525.63
2023-01-20T10:17:01.040Z,100523.00
2023-01-20T10:22:13.509Z,100519.08
2023-01-20T10:27:19.733Z,100512.92
2023-01-20T10:32:33.437Z,100509.16
2023-01-20T10:37:41.013Z,100511.80
2023-01-20T10:42:50.500Z,100515.05
2023-01-20T10:48:10.087Z,100523.40
2023-01-20T10:53:46.827Z,100533.75
2023-01-20T10:58:53.511Z,100548.68
2023-01-20T11:03:59.650Z,100546.38
2023-01-20T11:09:24.376Z,100540.49
2023-01-20T11:14:31.396Z,100538.92
2023-01-20T11:19:54.100Z,100538.36
2023-01-20T11:25:04.405Z,100536.95
2023-01-20T11:30:26.687Z,100543.45
2023-01-20T11:35:33.113Z,100556.17
2023-01-20T11:40:51.491Z,100563.24
2023-01-20T11:46:20.796Z,100568.06
2023-01-20T11:51:27.819Z,100573.30
2023-01-20T11:56:42.103Z,100582.70
2023-01-20T12:02:00.435Z,100584.59
2023-01-20T12:07:12.057Z,100585.95
2023-01-20T12:12:28.403Z,100596.33
2023-01-20T12:17:46.429Z,100601.67
2023-01-20T12:23:02.989Z,100605.37
2023-01-20T12:28:14.357Z,100610.33
2023-01-20T12:33:31.099Z,100617.25
2023-01-20T12:38:50.588Z,100627.17
2023-01-20T12:44:11.737Z,100625.36
2023-01-20T12:49:36.176Z,100622.23
2023-01-20T12:55:18.140Z,100625.48
2023-01-20T13:00:53.725Z,100617.53
2023-01-20T13:06:28.235Z,100623.21
2023-01-20T13:11:49.885Z,100620.76
2023-01-20T13:17:06.905Z,100617.85
2023-01-20T13:22:17.273Z,100621.80
2023-01-20T13:27:29.526Z,100622.70
2023-01-20T13:32:42.004Z,100633.52
2023-01-20T13:37:54.556Z,100627.08
2023-01-20T13:43:00.865Z,100623.71
2023-01-20T13:48:25.139Z,100619.86
2023-01-20T13:53:32.124Z,100611.44
2023-01-20T13:58:48.330Z,100610.84
2023-01-20T14:13:37.384Z,100626.95
2023-01-20T14:18:43.544Z,100634.76
2023-01-20T14:23:50.096Z,100638.17
2023-01-20T14:28:57.965Z,100638.04
2023-01-20T14:34:19.160Z,100648.73
2023-01-20T14:39:24.519Z,100654.80
2023-01-20T14:44:34.892Z,100665.56
2023-01-20T14:49:41.666Z,100674.02
2023-01-20T14:54:49.695Z,100675.98
2023-01-20T15:00:12.235Z,100679.90
2023-01-20T15:05:28.080Z,100689.00
2023-01-20T15:10:34.358Z,100697.20
2023-01-20T15:15:40.335Z,100707.77
2023-01-20T15:20:48.818Z,100714.05
2023-01-20T15:25:54.854Z,100716.48
2023-01-20T15:31:00.813Z,100715.92
2023-01-20T15:36:23.379Z,100725.17
2023-01-20T15:41:29.152Z,100735.27
2023-01-20T15:46:35.888Z,100735.60
2023-01-20T15:51:42.761Z,100728.14
2023-01-20T15:56:48.500Z,100726.26
2023-01-20T16:01:54.535Z,100727.83
2023-01-20T16:07:00.443Z,100732.18
2023-01-20T16:12:06.780Z,100738.34
2023-01-20T16:17:18.108Z,100742.05
2023-01-20T16:22:23.884Z,100742.11
2023-01-20T16:27:29.910Z,100752.94
2023-01-20T16:32:35.631Z,100760.09
2023-01-20T16:37:42.230Z,100765.17
2023-01-20T16:42:48.336Z,100774.98
2023-01-20T16:47:54.812Z,100782.48
2023-01-20T16:53:00.951Z,100786.41
2023-01-20T16:58:08.626Z,100791.06
2023-01-20T17:03:14.409Z,100792.86
2023-01-20T17:08:20.113Z,100792.38
2023-01-20T17:13:26.032Z,100792.73
2023-01-20T17:18:32.042Z,100801.83
2023-01-20T17:23:38.098Z,100803.46
2023-01-20T17:28:44.001Z,100798.17
2023-01-20T17:33:50.778Z,100797.23
2023-01-20T17:38:57.730Z,100798.09
2023-01-20T17:44:04.055Z,100803.96
2023-01-20T17:49:10.062Z,100799.03
2023-01-20T17:54:16.419Z,100801.17
2023-01-20T17:59:22.252Z,100809.26
2023-01-20T18:04:29.453Z,100814.59
2023-01-20T18:09:36.079Z,100814.42
2023-01-20T18:14:41.873Z,100814.75
2023-01-20T18:19:47.801Z,100819.16
2023-01-20T18:24:53.751Z,100824.05
2023-01-20T18:29:59.579Z,100828.74
2023-01-20T18:35:05.920Z,100826.29
2023-01-20T18:40:14.596Z,100826.02
2023-01-20T18:45:20.781Z,100828.04
2023-01-20T18:50:26.588Z,100828.95
2023-01-20T18:55:32.405Z,100832.39
2023-01-20T19:00:38.285Z,100828.74
2023-01-20T19:05:44.337Z,100824.70
2023-01-20T19:10:51.030Z,100824.67
2023-01-20T19:15:57.397Z,100832.23
2023-01-20T19:21:07.130Z,100834.97
2023-01-20T19:26:14.658Z,100835.13
2023-01-20T19:31:20.538Z,100842.38
2023-01-20T19:36:26.675Z,100840.58
2023-01-20T19:41:34.654Z,100844.11
2023-01-20T19:46:41.037Z,100841.52
2023-01-20T19:51:47.911Z,100841.35
2023-01-20T19:56:54.516Z,100834.98
2023-01-20T20:02:00.475Z,100830.64
2023-01-20T20:07:06.473Z,100826.73
2023-01-20T20:12:12.281Z,100823.56
2023-01-20T20:17:17.998Z,100822.86
2023-01-20T20:22:23.967Z,100820.26
2023-01-20T20:27:29.877Z,100823.59
2023-01-20T20:32:35.633Z,100824.73
2023-01-20T20:37:42.110Z,100823.51
2023-01-20T20:42:48.665Z,100813.96
2023-01-20T20:47:54.589Z,100807.96
2023-01-20T20:53:01.070Z,100805.13
2023-01-20T20:58:06.822Z,100804.23
2023-01-20T21:03:12.599Z,100807.65
2023-01-20T21:08:19.400Z,100807.21
2023-01-20T21:13:25.219Z,100810.60
2023-01-20T21:18:31.872Z,100818.44
2023-01-20T21:23:37.969Z,100823.62
2023-01-20T21:28:44.576Z,100818.58
2023-01-20T21:33:54.631Z,100807.38
2023-01-20T21:39:01.359Z,100798.11
2023-01-20T21:44:29.853Z,100799.38
2023-01-20T21:49:56.150Z,100800.65
2023-01-20T21:55:02.686Z,100794.79
2023-01-20T22:00:11.588Z,100795.42
2023-01-20T22:05:18.487Z,100787.02
2023-01-20T22:10:24.187Z,100789.42
2023-01-20T22:15:30.087Z,100791.11
2023-01-20T22:20:36.283Z,100786.46
2023-01-20T22:25:42.263Z,100788.60
2023-01-20T22:30:47.978Z,100788.27
2023-01-20T22:35:56.972Z,100774.44
2023-01-20T22:41:06.376Z,100763.98
2023-01-20T22:46:13.981Z,100754.26
2023-01-20T22:51:21.810Z,100753.21
2023-01-20T22:56:29.528Z,100750.21
2023-01-20T23:01:36.217Z,100740.80
2023-01-20T23:06:42.201Z,100739.81
2023-01-20T23:11:49.623Z,100735.39
2023-01-20T23:16:55.396Z,100731.53
2023-01-20T23:22:01.385Z,100733.79
2023-01-20T23:27:07.957Z,100720.95
2023-01-20T23:32:13.812Z,100721.59
2023-01-20T23:37:19.536Z,100717.45
2023-01-20T23:42:25.509Z,100706.06
2023-01-20T23:47:31.300Z,100702.23
2023-01-20T23:52:37.165Z,100698.11
2023-01-20T23:57:42.910Z,100705.16
